Terminal Aerodrome Forecast
Issued by NWS Albany, NY

Home | Current Version | Previous Version | Text Only | Print | Product List | Glossary On
Versions: 1 2 3 4 5 6 7 8 9 10 11 12 13 14 15 16 17 18 19 20 21 22 23
350
FTUS41 KALY 272133 AAA
TAFPOU
TAF AMD
KPOU 272133Z 2722/2818 22007KT P6SM SCT015 SCT080
     FM280400 VRB03KT 1 1/2SM BR BKN005 OVC010
     FM281300 00000KT 6SM BR VCSH SCT003 OVC008 PROB30 2814/2818 2SM
      -RA BR BKN005 OVC009=

USA.gov is the U.S. government's official web portal to all federal, state and local government web resources and services.